Detall de PIREP

Printer-friendly versionPDF version

[2013/12/03 08:06:00]
Flight IATA:CT0001
Pilot Number:041
Company ICAO:CAT
Aircraft Type:DC3/A
PAX:12
Aircraft Registration:PAX
Departing Airport: LESU
Destination Airport: LERS
Alternate Airport:LEGE
Online: VATSIM
Route:SLL RES
Flight Level:A075
No Slew and time accel
No pause
Crash detect
Detect pilot in Cockpit between each 30 and 45 minutes
08:06 Zero fuel Weight: 24826 Lbs, Fuel Weight: 3906 Lbs
08:06 VATSIM:LESU 021600Z 06012KT 020V140 9999 SCT070 01/M16 Q1013
08:06 VATSIM:LERS 030730Z 28014KT CAVOK 04/M07 Q1022
08:06 VOICE CATALONIAN
08:06 Parking Brakes off
08:12 Take-off
08:12 Take off Weight: 28702 Lbs
08:12 Wind: 286º @ 003 Knots Heading: 030º
08:12 POS N42º 20´ 34´´ E001º 24´ 43´´
08:12 Flaps:2 at 84 Knots
08:12 Gear Up: 086 Knots
08:13 Flaps:1 at 88 Knots
08:13 Flaps:0 at 79 Knots
08:22 TOC
08:22 Fuel Weight: 3759 Lb
08:27 Wind:344º@011 KnotsHeading: 137º Ground Speed: 161 Knots Altitude 7896 ft
08:37 TOD
08:37 Fuel Weight: 3644 Lb
08:37 TOC
08:37 Fuel Weight: 3640 Lb
08:37 TOD
08:37 Fuel Weight: 3638 Lb
08:38 TOC
08:38 Fuel Weight: 3635 Lb
08:38 TOD
08:38 Fuel Weight: 3630 Lb
08:39 TOC
08:39 Fuel Weight: 3629 Lb
08:41 TOD
08:41 Fuel Weight: 3606 Lb
08:42 Wind:340º@013 Knots Heading: 007º Ground Speed: 153 Knots Altitude 7578 ft
08:42 TOC
08:42 Fuel Weight: 3605 Lb
08:42 TOD
08:42 Fuel Weight: 3604 Lb
08:55 Flaps:1 at 119 Knots
08:55 Flaps:2 at 116 Knots
08:55 Flaps:4 at 103 Knots
08:55 Gear Down: 102 Knots
08:55 Flaps:6 at 94 Knots
08:55 Flaps:7 at 93 Knots
08:56 TouchDown:Rate -312 ft/min Speed: 70 Knots
08:56 VATSIM:LERS 030830Z 29011KT 260V320 CAVOK 05/M07 Q1023
08:56 Land
08:56 Wind:278º@014 Knots
08:56 Heading: 248º
08:56 Flight Duration: 00:44
08:56 Landing Weight: 28359 Lbs
08:56 POS N41º 09´ 00´´ E001º 10´ 36´´
08:59 Parking brakes on
08:59 Block to Block Duration: 00:53
08:59 Final Fuel: 3516 Lbls
08:59 Spent Fuel: 390 Lbls
08:59 Flight Length: 112 NM
08:59 TOD Land Length: 34 NM

Exportar CSV

Powered by Drupal - Modified by Danger4k